Aérodrome :
LOGIN :

S'inscrire | Disclaimer

   EN    FR    IT 

 










Légende :    VFR   VFR Marginal   IFR   IFR Intensif   IFR Très Intensif
Visi : 
Plafond : 
>= 8 km
>= 3000ft
5 à 8 km
1000 à 3000 ft
1500m à 5 km
500 à 1000 ft
800 à 1500m
200 à 500 ft
< 800m
< 200 ft
Symboles :   Orages  Brouillard  Fortes neiges  Fortes précipitations  Vent > 20 kt
SIGMETs :   Divers  Orages  Givrage  Turbulence  Onde Orograph.  Cendres Volcan.






- Altitude de l'aérodrome : 782 ft
- Code IATA : BGY


LIME - Orio al Serio International - Bergamo

DERNIER METAR :
  • 272120Z 30004KT 9999 FEW070 06/M04 Q1004 NOSIG

METARs EXPIRÉS :
  • 272050Z 29004KT 9999 FEW070 06/M05 Q1003 NOSIG
  • 272020Z 30004KT 9999 SCT070 07/M04 Q1003 NOSIG
  • 271950Z VRB02KT 9999 BKN070 06/M05 Q1003 NOSIG
  • 271920Z VRB02KT 9999 BKN070 07/M04 Q1003 NOSIG
  • 271850Z 25003KT 220V290 9999 BKN070 08/M06 Q1003 NOSIG

TAF TAF LIME
Valide du 27 à 18h jusqu'au 28 à 18h UTC


271700Z 2718/2818 35010KT 9999 SCT090
TEMPO 2721/2806 34015G25KT
BECMG 2808/2810 VRB05KT



MET'MAP, la Météo Aéronautique d'un coup d'oeil ! - Copyright ORBIFLY Décembre 2007 - Disclaimer

ORBIFLY MET'MAP TEAM :

Programmation & Développement : Alexandra Zaïnal
Sur une idée originale de : Baudouin d'Aumeries
Assistance à la programmation : Marc-Olivier Méhu
Soutien technique & logistique : Manuel Goepfert

Contact : metmap@orbifly.com




SOURCES & CREDITS :

   NOAA